Pagrindinis puslapis
METAR-TAF:

METAR-TAF

Oro uostai :

Anderson, Indiana, Jungtinės Amerikos Valstijos

platuma: 40-07N, ilguma: 085-37W, Aukštis: 280 m

Dabartinis oras

Ataskaita buvo paskelbta 17 minutes, ne 10:35 UTC
Ramus vėjas
Temperatūra 3°C
Drėgmė 93%
Slėgis 1017 hPa
Matomumas: 16.1 km
Giedras dangus

METAR: KAID 141035Z AUTO 00000KT 10SM CLR 03/02 A3003 RMK AO2 T00260018

Laikas: 06:52 (10:52 UTC)


TAF: trūkstamas

Orai ataskaitas ir orų prognozės (METAR, TAF).

turimą stotys yra geltonos ir raudonos taškus žemėlapyje.

Perkelti pele per norėdami pamatyti stoties vardą.

Tada spustelėkite, norėdami matyti oro stebėjimo ir prognozės.

Norėdami pakeisti žemėlapį: spustelėkite ant žalios mygtukų su juodo kryžiaus žemyn,; žalią mygtuką su brūkšneliu, jei norite nutolinti; arba žalių rodyklių gretimoms žemėlapius.


METAR-TAF: